Bavaro, Dominican Republic
Current Conditions -  °F | °C
As of 11:00 AM on Thursday 23 Oct 2014 (Local Time) from MDPC Reporting Station
Scattered Clouds Scattered Clouds  
Wind Chill: 88°   Ceiling: Unl
Heat Index: 96°   Visibility: 6mi
Dew Point: 73°   Wind: 9mph
Humidity: 62%   Direction: 170°S
Pressure: 29.94"   Gusts: NA
Location:  18.72°N, 68.45°W
Report Text: MDPC 231500Z 17008KT 9999 FEW020 SCT300 31/23 Q1014
Loading
Personal Weather Stations






























Interactive Weather Map
Tropical Storm Tracking
New forecast layout! Learn more

10-Day Weather Forecast

Advertisements
Track Severe Weather on mobile